createdAt,value
2023-03-15T00:04:49.603Z,16
2023-03-15T00:10:05.999Z,15
2023-03-15T00:15:22.344Z,16
2023-03-15T00:20:38.758Z,17
2023-03-15T00:25:55.107Z,17
2023-03-15T00:31:11.576Z,17
2023-03-15T00:36:27.895Z,16
2023-03-15T00:41:44.256Z,14
2023-03-15T00:47:00.667Z,13
2023-03-15T00:52:17.057Z,13
2023-03-15T00:57:33.392Z,12
2023-03-15T01:02:49.874Z,13
2023-03-15T01:08:06.177Z,12
2023-03-15T01:13:22.527Z,8
2023-03-15T01:18:38.920Z,13
2023-03-15T01:23:55.292Z,12
2023-03-15T01:29:11.668Z,12
2023-03-15T01:34:28.085Z,10
2023-03-15T01:39:44.445Z,11
2023-03-15T01:45:00.878Z,13
2023-03-15T01:50:17.256Z,16
2023-03-15T01:55:33.594Z,14
2023-03-15T02:00:50.066Z,14
2023-03-15T02:06:06.387Z,16
2023-03-15T02:11:22.750Z,15
2023-03-15T02:16:39.192Z,14
2023-03-15T02:21:55.525Z,21
2023-03-15T02:27:11.940Z,17
2023-03-15T02:32:28.344Z,15
2023-03-15T02:37:44.657Z,14
2023-03-15T02:43:01.063Z,16
2023-03-15T02:48:17.433Z,12
2023-03-15T02:53:34.053Z,14
2023-03-15T02:58:50.465Z,12
2023-03-15T03:04:06.851Z,16
2023-03-15T03:09:23.217Z,12
2023-03-15T03:14:39.636Z,13
2023-03-15T03:19:55.976Z,10
2023-03-15T03:25:12.745Z,13
2023-03-15T03:30:28.761Z,11
2023-03-15T03:35:45.155Z,10
2023-03-15T03:41:01.498Z,11
2023-03-15T03:46:17.921Z,6
2023-03-15T03:51:34.315Z,2
2023-03-15T03:56:50.860Z,7
2023-03-15T04:02:07.240Z,6
2023-03-15T04:07:23.579Z,5
2023-03-15T04:12:40.076Z,24
2023-03-15T04:17:56.350Z,13
2023-03-15T04:23:12.767Z,11
2023-03-15T04:28:29.120Z,8
2023-03-15T04:33:45.478Z,0
2023-03-15T04:39:01.856Z,0
2023-03-15T04:44:18.219Z,0
2023-03-15T04:49:34.561Z,0
2023-03-15T04:54:50.952Z,0
2023-03-15T05:00:07.287Z,0
2023-03-15T05:05:23.672Z,0
2023-03-15T05:10:40.053Z,0
2023-03-15T05:15:56.427Z,0
2023-03-15T05:21:12.786Z,0
2023-03-15T05:26:29.889Z,0
2023-03-15T05:31:46.274Z,1
2023-03-15T05:37:02.624Z,0
2023-03-15T05:42:18.976Z,0
2023-03-15T05:47:35.346Z,0
2023-03-15T05:52:51.751Z,1
2023-03-15T05:58:08.083Z,0
2023-03-15T06:03:24.934Z,0
2023-03-15T06:08:41.963Z,0
2023-03-15T06:13:58.334Z,2
2023-03-15T06:19:14.733Z,2
2023-03-15T06:24:31.086Z,0
2023-03-15T06:29:47.443Z,1
2023-03-15T06:35:03.849Z,1
2023-03-15T06:40:20.189Z,2
2023-03-15T06:45:36.594Z,0
2023-03-15T06:50:52.977Z,1
2023-03-15T06:56:09.315Z,8
2023-03-15T07:01:26.390Z,4
2023-03-15T07:06:42.750Z,0
2023-03-15T07:11:59.096Z,0
2023-03-15T07:17:15.480Z,1
2023-03-15T07:22:31.848Z,2
2023-03-15T07:27:48.198Z,0
2023-03-15T07:33:04.622Z,0
2023-03-15T07:38:20.905Z,0
2023-03-15T07:43:37.319Z,0
2023-03-15T07:48:53.652Z,2
2023-03-15T07:54:09.995Z,0
2023-03-15T07:59:26.376Z,0
2023-03-15T08:04:42.721Z,0
2023-03-15T08:09:59.041Z,0
2023-03-15T08:15:15.440Z,0
2023-03-15T08:20:31.825Z,0
2023-03-15T08:25:48.146Z,0
2023-03-15T08:31:04.491Z,0
2023-03-15T08:36:20.974Z,0
2023-03-15T08:41:37.192Z,0
2023-03-15T08:46:53.573Z,0
2023-03-15T08:52:09.859Z,0
2023-03-15T08:57:26.243Z,2
2023-03-15T09:02:42.605Z,3
2023-03-15T09:07:58.907Z,0
2023-03-15T09:13:15.305Z,3
2023-03-15T09:18:31.614Z,0
2023-03-15T09:23:48.047Z,0
2023-03-15T09:29:04.381Z,0
2023-03-15T09:34:21.856Z,1
2023-03-15T09:39:37.073Z,0
2023-03-15T09:44:53.419Z,0
2023-03-15T09:50:09.761Z,0
2023-03-15T09:55:26.133Z,1
2023-03-15T10:00:42.485Z,0
2023-03-15T10:05:58.836Z,2
2023-03-15T10:11:15.202Z,1
2023-03-15T10:16:31.532Z,0
2023-03-15T10:21:48.146Z,1
2023-03-15T10:27:04.277Z,1
2023-03-15T10:32:20.601Z,0
2023-03-15T10:37:36.938Z,0
2023-03-15T10:42:53.252Z,0
2023-03-15T10:48:09.553Z,0
2023-03-15T10:53:25.932Z,0
2023-03-15T10:58:42.167Z,0
2023-03-15T11:03:58.494Z,0
2023-03-15T11:09:14.808Z,0
2023-03-15T11:14:31.101Z,0
2023-03-15T11:19:47.430Z,0
2023-03-15T11:25:03.812Z,0
2023-03-15T11:30:20.039Z,0
2023-03-15T11:35:36.444Z,0
2023-03-15T11:40:52.734Z,0
2023-03-15T11:46:09.173Z,0
2023-03-15T11:51:25.386Z,0
2023-03-15T11:56:41.681Z,1
2023-03-15T12:01:58.078Z,0
2023-03-15T12:07:14.351Z,0
2023-03-15T12:12:30.708Z,0
2023-03-15T12:17:47.032Z,0
2023-03-15T12:23:03.385Z,0
2023-03-15T12:28:19.708Z,1
2023-03-15T12:33:36.059Z,0
2023-03-15T12:38:52.348Z,0
2023-03-15T12:44:08.728Z,1
2023-03-15T12:49:25.017Z,0
2023-03-15T12:54:41.371Z,0
2023-03-15T12:59:57.748Z,0
2023-03-15T13:05:14.049Z,0
2023-03-15T13:10:31.470Z,0
2023-03-15T13:15:56.053Z,0
2023-03-15T13:21:12.403Z,0
2023-03-15T13:26:28.753Z,0
2023-03-15T13:31:45.199Z,12
2023-03-15T13:37:01.433Z,0
2023-03-15T13:42:18.106Z,1
2023-03-15T13:47:34.084Z,0
2023-03-15T13:52:50.428Z,0
2023-03-15T13:58:06.802Z,1
2023-03-15T14:03:23.116Z,1
2023-03-15T14:08:39.472Z,1
2023-03-15T14:13:55.820Z,2
2023-03-15T14:19:12.114Z,0
2023-03-15T14:24:28.498Z,0
2023-03-15T14:29:44.808Z,0
2023-03-15T14:35:01.155Z,0
2023-03-15T14:40:17.504Z,0
2023-03-15T14:45:33.875Z,0
2023-03-15T14:50:50.249Z,0
2023-03-15T14:56:06.527Z,1
2023-03-15T15:01:23.091Z,6
2023-03-15T15:06:39.235Z,0
2023-03-15T15:11:55.559Z,0
2023-03-15T15:17:11.860Z,0
2023-03-15T15:22:28.308Z,1
2023-03-15T15:27:44.617Z,1
2023-03-15T15:33:01.049Z,0
2023-03-15T15:38:17.331Z,4
2023-03-15T15:43:33.966Z,0
2023-03-15T15:48:50.026Z,0
2023-03-15T15:54:06.361Z,0
2023-03-15T15:59:22.680Z,3
2023-03-15T16:04:41.186Z,2
2023-03-15T16:09:55.474Z,0
2023-03-15T16:15:11.727Z,6
2023-03-15T16:20:28.103Z,12
2023-03-15T16:25:44.404Z,0
2023-03-15T16:31:00.798Z,0
2023-03-15T16:36:17.138Z,6
2023-03-15T16:41:33.488Z,5
2023-03-15T16:46:50.021Z,0
2023-03-15T16:52:06.222Z,3
2023-03-15T16:57:22.628Z,1
2023-03-15T17:02:39.033Z,0
2023-03-15T17:07:55.344Z,0
2023-03-15T17:13:11.654Z,2
2023-03-15T17:18:27.995Z,0
2023-03-15T17:23:44.448Z,1
2023-03-15T17:29:00.833Z,5
2023-03-15T17:34:17.193Z,0
2023-03-15T17:39:33.515Z,1
2023-03-15T17:44:49.939Z,4
2023-03-15T17:50:06.262Z,2
2023-03-15T17:55:22.647Z,0
2023-03-15T18:00:39.041Z,0
2023-03-15T18:05:55.410Z,7
2023-03-15T18:11:11.899Z,4
2023-03-15T18:16:28.268Z,1
2023-03-15T18:21:44.560Z,2
2023-03-15T18:27:00.934Z,1
2023-03-15T18:32:17.322Z,1
2023-03-15T18:37:33.635Z,2
2023-03-15T18:42:50.056Z,4
2023-03-15T18:48:06.390Z,1
2023-03-15T18:53:22.745Z,2
2023-03-15T18:58:39.120Z,2
2023-03-15T19:03:55.470Z,2
2023-03-15T19:09:11.855Z,2
2023-03-15T19:14:28.241Z,2
2023-03-15T19:19:44.574Z,4
2023-03-15T19:25:00.992Z,3
2023-03-15T19:30:17.346Z,1
2023-03-15T19:35:33.853Z,0
2023-03-15T19:40:50.114Z,1
2023-03-15T19:46:06.473Z,5
2023-03-15T19:51:22.847Z,4
2023-03-15T19:56:39.189Z,1
2023-03-15T20:01:56.401Z,1
2023-03-15T20:07:12.713Z,0
2023-03-15T20:12:29.030Z,0
2023-03-15T20:17:45.410Z,1
2023-03-15T20:23:01.930Z,1
2023-03-15T20:28:18.137Z,1
2023-03-15T20:33:34.554Z,0
2023-03-15T20:38:50.925Z,2
2023-03-15T20:44:07.317Z,2
2023-03-15T20:49:23.667Z,1
2023-03-15T20:54:40.042Z,7
2023-03-15T20:59:56.400Z,1
2023-03-15T21:05:12.896Z,1
2023-03-15T21:10:29.166Z,1
2023-03-15T21:15:45.568Z,3
2023-03-15T21:21:01.951Z,2
2023-03-15T21:26:18.295Z,3
2023-03-15T21:31:34.765Z,2
2023-03-15T21:36:51.063Z,5
2023-03-15T21:42:07.458Z,3
2023-03-15T21:47:23.838Z,2
2023-03-15T21:52:40.338Z,3
2023-03-15T21:57:56.583Z,2
2023-03-15T22:03:13.055Z,7
2023-03-15T22:08:29.402Z,11
2023-03-15T22:13:45.765Z,7
2023-03-15T22:19:02.147Z,1
2023-03-15T22:24:18.527Z,0
2023-03-15T22:29:34.855Z,0
2023-03-15T22:34:51.285Z,1
2023-03-15T22:40:07.618Z,0
2023-03-15T22:45:23.995Z,0
2023-03-15T22:50:40.422Z,0
2023-03-15T22:55:56.744Z,0
2023-03-15T23:01:13.196Z,0
2023-03-15T23:06:29.544Z,0
2023-03-15T23:11:45.912Z,0
2023-03-15T23:17:02.235Z,0
2023-03-15T23:22:18.639Z,0
2023-03-15T23:27:34.964Z,0
2023-03-15T23:32:51.374Z,0
2023-03-15T23:38:07.736Z,0
2023-03-15T23:43:24.100Z,0
2023-03-15T23:48:40.496Z,0
2023-03-15T23:53:56.871Z,0
2023-03-15T23:59:13.201Z,0
